Data for 02/12/2006

Time Sea-Level Adjusted Pressure Absolute Pressure Temperature Relative Humidity Dew Point   
(mb) (inHg) (mb) (inHg) (C) (F) (%) (C) (F)
00:05 1031 30.45 860 25.4 -4 24.9 34 -17.8 -0
00:10 1031 30.45 860 25.4 -3.5 25.8 32 -17.8 0
00:15 1031 30.45 860 25.4 -3.3 26.2 34 -17.1 1.3
00:20 1031 30.45 860 25.4 -3.7 25.3 35 -17.1 1.3
00:25 1031 30.45 860 25.4 -4 24.9 35 -17.4 0.8
00:30 1031 30.45 860 25.4 -4.1 24.6 37 -16.7 1.9
00:35 1031 30.45 860 25.4 -4.7 23.5 40 -16.4 2.4
00:40 1031 30.45 860 25.4 -5.3 22.4 43 -16 3.2
00:45 1031 30.45 860 25.4 -5.2 22.7 41 -16.6 2.1
00:50 1031 30.45 860 25.4 -5 23 43 -15.8 3.6
00:55 1031 30.45 860 25.4 -5.1 22.8 42 -16.1 3.1
01:00 1031 30.45 860 25.4 -5.1 22.8 42 -16.1 3
01:05 1031 30.45 860 25.4 -5.4 22.3 43 -16.2 2.9
01:10 1031 30.45 860 25.4 -5.4 22.3 43 -16.1 3
01:15 1031 30.45 860 25.4 -5.3 22.4 44 -15.9 3.4
01:20 1031 30.45 860 25.4 -5.7 21.7 49 -14.7 5.5
01:25 1031 30.45 860 25.4 -5.4 22.4 44 -15.8 3.6
01:30 1031 30.45 860 25.4 -4.7 23.5 41 -16.1 2.9
01:35 1031 30.45 860 25.4 -4.7 23.5 51 -13.4 7.9
01:40 1031 30.45 860 25.4 -4.7 23.5 50 -13.6 7.6
01:45 1031 30.45 860 25.4 -4.9 23.2 48 -14.3 6.2
01:50 1031 30.45 860 25.4 -4.8 23.4 53 -12.9 8.8
01:55 1031 30.45 860 25.4 -5.1 22.8 55 -12.7 9.2
02:00 1031 30.45 860 25.4 -5.3 22.5 54 -13.2 8.2
02:05 1031 30.45 860 25.4 -5.3 22.5 57 -12.5 9.5
02:10 1031 30.45 860 25.4 -5.4 22.2 58 -12.4 9.7
02:15 1031 30.45 860 25.4 -5.3 22.4 59 -12.2 10.1
02:20 1031 30.45 860 25.4 -5.7 21.7 61 -12.1 10.1
02:25 1031 30.45 860 25.4 -5.7 21.7 62 -11.9 10.5
02:30 1031 30.45 860 25.4 -5.4 22.3 61 -11.8 10.8
02:35 1031 30.45 860 25.4 -5.7 21.7 59 -12.5 9.6
02:40 1031 30.45 860 25.4 -5.9 21.4 62 -12 10.4
02:45 1031 30.45 860 25.4 -5.3 22.5 60 -11.9 10.5
02:50 1031 30.45 860 25.4 -5.7 21.7 62 -11.9 10.6
02:55 1031 30.45 860 25.4 -6.1 21 64 -11.9 10.6
03:00 1031 30.45 860 25.4 -5.6 21.9 61 -12 10.3
03:05 1031 30.45 860 25.4 -5.4 22.3 56 -12.9 8.8
03:10 1031 30.45 860 25.4 -5.4 22.2 55 -13.2 8.3
03:15 1030 30.42 860 25.4 -5.8 21.5 54 -13.7 7.4
03:20 1030 30.42 859 25.37 -5.7 21.8 49 -14.8 5.4
03:25 1030 30.42 859 25.37 -5.4 22.3 48 -14.7 5.5
03:30 1030 30.42 859 25.37 -5.2 22.7 48 -14.5 5.9
03:35 1030 30.42 859 25.37 -5.1 22.7 49 -14.4 6.1
03:40 1030 30.42 859 25.37 -5.4 22.3 50 -14.3 6.3
03:45 1030 30.42 859 25.37 -5.2 22.6 49 -14.4 6.1
03:50 1030 30.42 859 25.37 -5.1 22.7 49 -14.3 6.3
03:55 1030 30.42 859 25.37 -5.5 22.2 52 -13.9 7.1
04:00 1030 30.42 859 25.37 -6 21.1 55 -13.6 7.5
04:05 1030 30.42 859 25.37 -6.4 20.5 54 -14.2 6.5
04:10 1030 30.42 859 25.37 -6.3 20.7 53 -14.4 6.1
04:15 1030 30.42 859 25.37 -6.3 20.6 53 -14.5 5.9
04:20 1030 30.42 859 25.37 -6.3 20.7 52 -14.7 5.6
04:25 1030 30.42 859 25.37 -6.2 20.8 54 -14 6.8
04:30 1030 30.42 859 25.37 -6.5 20.3 54 -14.3 6.3
04:35 1030 30.42 859 25.37 -6.4 20.5 55 -14.1 6.7
04:40 1030 30.42 859 25.37 -6.5 20.4 54 -14.3 6.3
04:45 1030 30.42 859 25.37 -6.3 20.6 54 -14.3 6.3
04:50 1030 30.42 859 25.37 -6 21.2 52 -14.5 6
04:55 1030 30.42 859 25.37 -5.8 21.6 51 -14.4 6.1
05:00 1030 30.42 859 25.37 -5.7 21.7 52 -14.1 6.6
05:05 1030 30.42 859 25.37 -6.1 21 53 -14.2 6.5
05:10 1030 30.42 859 25.37 -6 21.1 55 -13.6 7.5
05:15 1030 30.42 859 25.37 -5.9 21.3 53 -14 6.7
05:20 1030 30.42 859 25.37 -5.6 21.8 54 -13.7 7.4
05:25 1030 30.42 860 25.4 -6.2 20.8 56 -13.7 7.4
05:30 1030 30.42 860 25.4 -6.7 20 60 -13.2 8.3
05:35 1030 30.42 860 25.4 -6.4 20.4 59 -13.1 8.4
05:40 1030 30.42 860 25.4 -6.7 20 58 -13.6 7.5
05:45 1030 30.42 860 25.4 -7 19.4 58 -13.9 7
05:50 1030 30.42 860 25.4 -7.2 19 60 -13.7 7.3
05:55 1030 30.42 860 25.4 -7.3 18.8 59 -14 6.8
06:00 1030 30.42 860 25.4 -6.4 20.5 61 -12.7 9.1
06:05 1030 30.42 860 25.4 -6.7 19.9 67 -11.9 10.6
06:10 1030 30.42 860 25.4 -6.8 19.7 68 -11.8 10.7
06:15 1030 30.42 860 25.4 -6.1 21.1 63 -12 10.4
06:20 1030 30.42 860 25.4 -5.6 21.9 62 -11.9 10.7
06:25 1030 30.42 860 25.4 -5.4 22.3 62 -11.5 11.4
06:30 1030 30.42 860 25.4 -5.8 21.6 63 -11.7 11
06:35 1030 30.42 859 25.37 -6.1 21 63 -12 10.3
06:40 1030 30.42 859 25.37 -6.8 19.8 64 -12.5 9.5
06:45 1030 30.42 859 25.37 -7.1 19.2 62 -13.2 8.3
06:50 1030 30.42 859 25.37 -7.1 19.3 63 -12.9 8.8
06:55 1030 30.42 859 25.37 -7.1 19.3 66 -12.3 9.8
07:00 1030 30.42 859 25.37 -6.9 19.7 65 -12.4 9.8
07:05 1030 30.42 859 25.37 -6.5 20.2 65 -12.1 10.2
07:10 1030 30.42 859 25.37 -6.6 20.2 66 -12 10.4
07:15 1030 30.42 859 25.37 -6.6 20.1 67 -11.7 10.9
07:20 1030 30.42 859 25.37 -7.1 19.3 66 -12.4 9.6
07:25 1030 30.42 859 25.37 -6.9 19.6 63 -12.8 9
07:30 1030 30.42 859 25.37 -6.8 19.7 62 -12.8 8.9
07:35 1030 30.42 859 25.37 -6.9 19.6 63 -12.8 8.9
07:40 1030 30.42 859 25.37 -6.9 19.6 63 -12.8 9
07:45 1030 30.42 859 25.37 -7 19.4 63 -12.9 8.8
07:50 1030 30.42 859 25.37 -7 19.3 63 -13 8.6
07:55 1030 30.42 859 25.37 -6.8 19.8 62 -13 8.7
08:00 1030 30.42 859 25.37 -6.5 20.4 60 -12.9 8.7
08:05 1030 30.42 859 25.37 -6.3 20.7 60 -12.8 8.9
08:10 1030 30.42 859 25.37 -6.2 20.8 59 -12.9 8.7
08:15 1030 30.42 859 25.37 -5.9 21.4 58 -12.9 8.8
08:20 1030 30.42 859 25.37 -5.7 21.8 57 -12.8 8.9
08:25 1030 30.42 859 25.37 -5.3 22.4 56 -12.9 8.8
08:30 1030 30.42 859 25.37 -5.1 22.8 55 -12.8 8.9
08:35 1030 30.42 859 25.37 -4.8 23.4 54 -12.8 9
08:40 1030 30.42 859 25.37 -4.3 24.2 52 -12.7 9.2
08:45 1030 30.42 859 25.37 -4 24.7 51 -12.6 9.2
08:50 1030 30.42 859 25.37 -3.7 25.4 51 -12.5 9.5
08:55 1030 30.42 859 25.37 -3.1 26.4 49 -12.4 9.7
09:00 1030 30.42 859 25.37 -2.9 26.8 49 -12.2 10.1
09:05 1030 30.42 859 25.37 -2.3 27.8 46 -12.5 9.5
09:10 1030 30.42 859 25.37 -1.7 29 46 -12 10.4
09:15 1030 30.42 859 25.37 -1.6 29.1 45 -12.1 10.1
09:20 1030 30.42 859 25.37 -1.3 29.7 44 -12 10.4
09:25 1030 30.42 859 25.37 -0.8 30.5 43 -11.9 10.6
09:30 1030 30.42 859 25.37 -1.3 29.7 45 -11.7 11
09:35 1030 30.42 859 25.37 -1.3 29.7 44 -12 10.4
09:40 1030 30.42 859 25.37 -0.6 30.9 43 -11.7 10.9
09:45 1030 30.42 859 25.37 -0.4 31.2 42 -11.9 10.6
09:50 1030 30.42 859 25.37 -1 30.3 43 -11.9 10.5
09:55 1030 30.42 859 25.37 -1.1 30.1 42 -12.4 9.7
10:00 1030 30.42 859 25.37 -0.7 30.7 41 -12.4 9.7
10:05 1030 30.42 859 25.37 -1.1 30 43 -12.3 9.8
10:10 1030 30.42 859 25.37 -1.1 30 42 -12.6 9.3
10:15 1030 30.42 859 25.37 -1.4 29.4 43 -12.5 9.5
10:20 1030 30.42 859 25.37 -1 30.3 41 -12.8 9
10:25 1029 30.39 859 25.37 -0.7 30.7 41 -12.5 9.4
10:30 1029 30.39 859 25.37 -0.3 31.5 39 -12.5 9.4
10:35 1029 30.39 859 25.37 0.3 32.6 37 -12.7 9.1
10:40 1029 30.39 859 25.37 0.5 32.9 38 -12.1 10.2
10:45 1029 30.39 859 25.37 0.4 32.8 37 -12.6 9.3
10:50 1029 30.39 858 25.34 0.1 32.2 40 -12 10.5
10:55 1029 30.39 858 25.34 0.3 32.5 41 -11.5 11.3
11:00 1029 30.39 858 25.34 0.7 33.2 41 -11.3 11.7
11:05 1029 30.39 858 25.34 0.6 33.2 41 -11.2 11.8
11:10 1029 30.39 858 25.34 0.8 33.4 40 -11.4 11.5
11:15 1029 30.39 858 25.34 1.1 33.9 38 -11.6 11.1
11:20 1029 30.39 858 25.34 1 33.7 39 -11.6 11.1
11:25 1029 30.39 858 25.34 1.5 34.8 38 -11.4 11.5
11:30 1029 30.39 858 25.34 1.7 35.1 39 -10.8 12.5
11:35 1029 30.39 858 25.34 1.8 35.2 39 -10.9 12.4
11:40 1029 30.39 858 25.34 1.6 34.8 38 -11.3 11.7
11:45 1029 30.39 858 25.34 1.8 35.3 38 -11 12.3
11:50 1029 30.39 858 25.34 1.8 35.3 37 -11.3 11.7
11:55 1029 30.39 858 25.34 2 35.6 38 -10.9 12.3
12:00 1029 30.39 858 25.34 2.1 35.8 36 -11.5 11.3
12:05 1029 30.39 858 25.34 2.1 35.8 37 -11 12.2
12:10 1028 30.36 858 25.34 2.7 36.9 35 -11.2 11.8
12:15 1028 30.36 858 25.34 3.1 37.6 35 -11.1 12
12:20 1028 30.36 858 25.34 2.7 36.9 38 -10.2 13.6
12:25 1028 30.36 857 25.31 2.3 36.1 37 -10.9 12.4
12:30 1028 30.36 857 25.31 2.3 36.1 38 -10.6 12.9
12:35 1028 30.36 857 25.31 2.5 36.5 36 -11.2 11.8
12:40 1028 30.36 857 25.31 2.8 37.1 36 -10.9 12.3
12:45 1028 30.36 857 25.31 3.1 37.6 36 -10.7 12.7
12:50 1028 30.36 857 25.31 3.6 38.4 34 -10.8 12.5
12:55 1028 30.36 857 25.31 3.5 38.3 35 -10.4 13.3
13:00 1028 30.36 857 25.31 3.5 38.2 35 -10.5 13.1
13:05 1028 30.36 857 25.31 3.5 38.3 34 -10.9 12.4
13:10 1027 30.33 857 25.31 3.8 38.9 33 -11.2 11.9
13:15 1027 30.33 857 25.31 3.9 39 32 -11.3 11.7
13:20 1027 30.33 856 25.28 4.1 39.3 31 -11.4 11.5
13:25 1027 30.33 856 25.28 4.2 39.5 32 -11 12.3
13:30 1027 30.33 856 25.28 4.2 39.5 33 -10.9 12.5
13:35 1027 30.33 856 25.28 4.5 40 33 -10.7 12.8
13:40 1027 30.33 856 25.28 4.7 40.4 32 -10.7 12.8
13:45 1027 30.33 856 25.28 4.1 39.4 34 -10.5 13.2
13:50 1027 30.33 856 25.28 3.6 38.4 35 -10.6 12.9
13:55 1027 30.33 856 25.28 4.3 39.8 33 -10.6 12.8
14:00 1027 30.33 856 25.28 4.7 40.5 33 -10.2 13.6
14:05 1026 30.3 856 25.28 4.6 40.3 33 -10.4 13.2
14:10 1026 30.3 856 25.28 4.7 40.5 32 -10.6 12.9
14:15 1026 30.3 856 25.28 4.7 40.5 34 -10 14
14:20 1026 30.3 856 25.28 4.2 39.6 35 -10.1 13.8
14:25 1026 30.3 856 25.28 4.5 40.2 33 -10.3 13.4
14:30 1026 30.3 856 25.28 5.1 41.1 32 -10.2 13.6
14:35 1026 30.3 856 25.28 5.5 42 31 -10.3 13.5
14:40 1026 30.3 856 25.28 5.6 42 31 -10.4 13.3
14:45 1026 30.3 856 25.28 6 42.7 30 -10.4 13.3
14:50 1026 30.3 855 25.25 6.2 43.1 30 -10.2 13.6
14:55 1026 30.3 855 25.25 5.7 42.3 31 -10.3 13.4
15:00 1026 30.3 855 25.25 5 40.9 32 -10.5 13.1
15:05 1026 30.3 855 25.25 5.4 41.6 32 -10 14
15:10 1026 30.3 855 25.25 5.6 42.1 33 -9.6 14.8
15:15 1026 30.3 855 25.25 5.4 41.7 33 -9.5 14.9
15:20 1026 30.3 855 25.25 4.5 40.2 33 -10.4 13.3
15:25 1026 30.3 855 25.25 4.8 40.6 33 -10.3 13.4
15:30 1026 30.3 855 25.25 4.8 40.6 34 -10 14.1
15:35 1026 30.3 855 25.25 4.6 40.2 34 -10 13.9
15:40 1026 30.3 855 25.25 4.6 40.3 33 -10.4 13.2
15:45 1026 30.3 855 25.25 4.5 40 33 -10.3 13.5
15:50 1026 30.3 855 25.25 4 39.2 34 -10.3 13.4
15:55 1026 30.3 855 25.25 3.8 38.9 35 -10.2 13.6
16:00 1026 30.3 855 25.25 4.3 39.7 35 -9.8 14.4
16:05 1026 30.3 855 25.25 5 41 33 -9.9 14.1
16:10 1025 30.27 855 25.25 5.2 41.3 34 -9.6 14.7
16:15 1025 30.27 854 25.22 5 40.9 34 -9.6 14.8
16:20 1025 30.27 854 25.22 5.2 41.3 33 -9.9 14.2
16:25 1025 30.27 854 25.22 5.1 41.1 34 -9.5 14.9
16:30 1025 30.27 854 25.22 4.9 40.7 36 -9.2 15.5
16:35 1025 30.27 854 25.22 4.9 40.8 37 -8.7 16.3
16:40 1025 30.27 854 25.22 4.2 39.6 40 -8.4 16.9
16:45 1025 30.27 854 25.22 3.7 38.7 40 -8.8 16.1
16:50 1025 30.27 854 25.22 3.4 38.1 40 -8.8 16.1
16:55 1025 30.27 854 25.22 3.2 37.8 39 -9.5 14.9
17:00 1025 30.27 854 25.22 3.1 37.7 40 -9.3 15.2
17:05 1025 30.27 854 25.22 3 37.5 38 -9.9 14.2
17:10 1025 30.27 854 25.22 3 37.4 39 -9.6 14.7
17:15 1025 30.27 854 25.22 2.9 37.2 39 -9.7 14.5
17:20 1025 30.27 854 25.22 2.9 37.1 39 -9.7 14.6
17:25 1025 30.27 854 25.22 2.9 37.2 39 -9.7 14.5
17:30 1025 30.27 854 25.22 2.8 37 40 -9.4 15
17:35 1025 30.27 854 25.22 2.8 37.1 41 -9.3 15.3
17:40 1025 30.27 854 25.22 2.8 37.1 41 -9.1 15.5
17:45 1025 30.27 854 25.22 2.1 35.8 43 -9.2 15.4
17:50 1025 30.27 854 25.22 2 35.7 43 -9.1 15.5
17:55 1025 30.27 854 25.22 2 35.6 45 -8.8 16.2
18:00 1025 30.27 854 25.22 1.9 35.5 44 -9.1 15.7
18:05 1025 30.27 854 25.22 1.8 35.3 47 -8.3 17.1
18:10 1025 30.27 854 25.22 1.6 35 48 -8.2 17.2
18:15 1025 30.27 854 25.22 0.9 33.5 53 -7.7 18.1
18:20 1025 30.27 854 25.22 0.3 32.5 52 -8.4 16.8
18:25 1025 30.27 854 25.22 0.2 32.3 53 -8.2 17.2
18:30 1025 30.27 854 25.22 0.2 32.3 53 -8.3 17.1
18:35 1025 30.27 854 25.22 0.3 32.6 53 -8.1 17.4
18:40 1025 30.27 854 25.22 0.2 32.4 54 -8.1 17.4
18:45 1025 30.27 854 25.22 0.7 33.2 50 -8.6 16.6
18:50 1025 30.27 854 25.22 1 33.8 50 -8.3 17.1
18:55 1025 30.27 854 25.22 1.2 34.1 50 -8.1 17.4
19:00 1025 30.27 854 25.22 1.2 34.1 51 -8 17.6
19:05 1025 30.27 854 25.22 0.8 33.4 51 -8.2 17.3
19:10 1025 30.27 854 25.22 0.7 33.3 53 -7.9 17.9
19:15 1025 30.27 854 25.22 0.2 32.4 54 -8 17.6
19:20 1025 30.27 854 25.22 -0.1 31.7 56 -7.9 17.9
19:25 1025 30.27 854 25.22 -0 31.9 59 -7.2 19.1
19:30 1025 30.27 854 25.22 0.2 32.3 58 -7 19.3
19:35 1025 30.27 854 25.22 0.6 33.1 51 -8.4 17
19:40 1025 30.27 854 25.22 0.7 33.3 49 -8.7 16.3
19:45 1025 30.27 854 25.22 0.7 33.3 50 -8.6 16.4
19:50 1025 30.27 854 25.22 0.6 33.1 48 -9.1 15.6
19:55 1025 30.27 854 25.22 0.3 32.5 51 -8.8 16.2
20:00 1025 30.27 854 25.22 0.3 32.6 49 -9.1 15.5
20:05 1025 30.27 854 25.22 1.3 34.3 46 -9.2 15.4
20:10 1025 30.27 854 25.22 1.2 34.2 52 -7.7 18.2
20:15 1025 30.27 854 25.22 0 32.1 56 -7.8 18
20:20 1025 30.27 854 25.22 0.2 32.3 53 -8.3 17.1
20:25 1025 30.27 854 25.22 0.5 32.9 53 -8 17.6
20:30 1025 30.27 854 25.22 0.4 32.8 51 -8.5 16.6
20:35 1024 30.24 854 25.22 0.8 33.4 50 -8.5 16.7
20:40 1025 30.27 854 25.22 0.7 33.2 52 -8.2 17.3
20:45 1025 30.27 854 25.22 1 33.7 51 -8.1 17.5
20:50 1025 30.27 854 25.22 1.4 34.5 50 -8 17.5
20:55 1025 30.27 854 25.22 1.2 34.2 50 -8.1 17.4
21:00 1024 30.24 854 25.22 1.1 34 51 -7.9 17.8
21:05 1024 30.24 854 25.22 0.9 33.6 51 -8.1 17.4
21:10 1024 30.24 854 25.22 1 33.7 51 -8.1 17.5
21:15 1024 30.24 854 25.22 1 33.8 51 -8.1 17.5
21:20 1024 30.24 854 25.22 0.8 33.4 52 -8.1 17.4
21:25 1024 30.24 854 25.22 1 33.9 50 -8.4 16.9
21:30 1024 30.24 854 25.22 1.2 34.1 50 -8 17.5
21:35 1024 30.24 854 25.22 0.8 33.4 52 -8 17.6
21:40 1024 30.24 854 25.22 0.7 33.2 52 -8.1 17.4
21:45 1025 30.27 854 25.22 0.6 33 52 -8.1 17.4
21:50 1024 30.24 854 25.22 0.6 33.1 51 -8.4 16.9
21:55 1025 30.27 854 25.22 0.8 33.5 49 -8.8 16.1
22:00 1025 30.27 854 25.22 1.2 34.1 47 -8.8 16.1
22:05 1025 30.27 854 25.22 1.1 34 47 -9.1 15.7
22:10 1025 30.27 854 25.22 1 33.7 50 -8.4 16.9
22:15 1025 30.27 854 25.22 0.3 32.5 52 -8.6 16.6
22:20 1025 30.27 854 25.22 0.4 32.8 46 -10 14
22:25 1025 30.27 854 25.22 1.6 34.9 43 -9.8 14.4
22:30 1025 30.27 854 25.22 2 35.5 41 -10 14
22:35 1025 30.27 854 25.22 2.1 35.8 41 -9.7 14.5
22:40 1025 30.27 854 25.22 1.1 34 46 -9.2 15.4
22:45 1025 30.27 854 25.22 0.2 32.3 47 -9.9 14.2
22:50 1025 30.27 854 25.22 0.6 33.1 45 -10.1 13.9
22:55 1025 30.27 854 25.22 0.8 33.4 45 -10 14.1
23:00 1025 30.27 854 25.22 0.6 33.2 45 -10.1 13.8
23:05 1025 30.27 854 25.22 0.9 33.5 42 -10.5 13.1
23:10 1025 30.27 854 25.22 0.9 33.7 42 -10.6 12.9
23:15 1025 30.27 854 25.22 0.6 33.2 45 -10 14.1
23:20 1025 30.27 854 25.22 -0 31.9 48 -9.9 14.2
23:25 1025 30.27 854 25.22 -0.2 31.6 47 -10.1 13.8
23:30 1025 30.27 854 25.22 -0.3 31.5 44 -11 12.2
23:35 1025 30.27 854 25.22 0.4 32.8 45 -10.2 13.6
23:40 1025 30.27 854 25.22 -0.6 31 51 -9.5 14.8
23:45 1025 30.27 854 25.22 -1 30.2 52 -9.6 14.7
23:50 1025 30.27 854 25.22 -0.9 30.3 50 -10.1 13.9
23:55 1025 30.27 854 25.22 -1 30.2 49 -10.3 13.5
24:00 1025 30.27 854 25.22 -0.5 31 49 -9.9 14.1